createdAt,value
2023-11-20T00:02:10.074Z,69.81
2023-11-20T00:04:36.740Z,68.55
2023-11-20T00:07:03.339Z,69.02
2023-11-20T00:09:29.946Z,68.96
2023-11-20T00:11:56.545Z,68.88
2023-11-20T00:14:23.123Z,69.09
2023-11-20T00:16:49.783Z,68.66
2023-11-20T00:19:16.430Z,69.01
2023-11-20T00:21:43.070Z,69.39
2023-11-20T00:24:09.779Z,68.95
2023-11-20T00:26:36.414Z,67.85
2023-11-20T00:29:03.249Z,69.31
2023-11-20T00:31:29.851Z,68.74
2023-11-20T00:33:56.521Z,69.79
2023-11-20T00:36:23.117Z,68.94
2023-11-20T00:38:49.730Z,69.01
2023-11-20T00:41:16.408Z,69.10
2023-11-20T00:43:42.975Z,69.41
2023-11-20T00:46:09.621Z,70.38
2023-11-20T00:48:36.259Z,69.46
2023-11-20T00:51:02.941Z,69.20
2023-11-20T00:53:29.590Z,68.28
2023-11-20T00:55:56.183Z,68.52
2023-11-20T00:58:22.766Z,68.94
2023-11-20T01:00:49.410Z,68.79
2023-11-20T01:03:16.115Z,67.99
2023-11-20T01:05:42.762Z,68.15
2023-11-20T01:08:09.349Z,68.40
2023-11-20T01:10:35.979Z,68.57
2023-11-20T01:13:02.586Z,68.34
2023-11-20T01:15:29.225Z,68.43
2023-11-20T01:17:55.924Z,69.96
2023-11-20T01:20:22.504Z,69.96
2023-11-20T01:22:49.071Z,69.31
2023-11-20T01:25:15.678Z,69.19
2023-11-20T01:27:42.320Z,69.68
2023-11-20T01:30:08.905Z,70.35
2023-11-20T01:32:35.520Z,70.69
2023-11-20T01:35:02.123Z,69.68
2023-11-20T01:37:28.813Z,69.94
2023-11-20T01:39:55.473Z,71.26
2023-11-20T01:42:22.069Z,69.83
2023-11-20T01:44:48.622Z,69.43
2023-11-20T01:47:15.200Z,67.57
2023-11-20T01:49:41.764Z,68.45
2023-11-20T01:52:08.398Z,68.15
2023-11-20T01:54:35.035Z,68.68
2023-11-20T01:57:01.609Z,67.44
2023-11-20T01:59:28.187Z,67.99
2023-11-20T02:01:54.801Z,66.38
2023-11-20T02:04:21.440Z,66.27
2023-11-20T02:06:48.064Z,66.66
2023-11-20T02:09:14.695Z,66.53
2023-11-20T02:11:41.265Z,66.88
2023-11-20T02:14:07.846Z,68.08
2023-11-20T02:16:34.408Z,67.37
2023-11-20T02:19:01.034Z,66.15
2023-11-20T02:21:27.603Z,67.32
2023-11-20T02:23:54.190Z,67.62
2023-11-20T02:26:20.748Z,67.38
2023-11-20T02:28:47.411Z,68.47
2023-11-20T02:31:14.092Z,69.17
2023-11-20T02:33:40.756Z,69.33
2023-11-20T02:36:07.337Z,69.77
2023-11-20T02:38:33.916Z,69.11
2023-11-20T02:41:00.484Z,68.90
2023-11-20T02:43:27.394Z,70.03
2023-11-20T02:45:54.001Z,69.19
2023-11-20T02:48:20.601Z,69.23
2023-11-20T02:50:47.179Z,67.36
2023-11-20T02:53:13.601Z,68.07
2023-11-20T02:55:40.032Z,68.34
2023-11-20T02:58:06.523Z,68.61
2023-11-20T03:00:32.988Z,68.75
2023-11-20T03:02:59.493Z,68.23
2023-11-20T03:05:25.989Z,69.02
2023-11-20T03:07:52.404Z,69.07
2023-11-20T03:10:18.981Z,69.08
2023-11-20T03:12:45.487Z,68.89
2023-11-20T03:15:11.935Z,69.21
2023-11-20T03:17:41.281Z,68.26
2023-11-20T03:20:07.789Z,69.36
2023-11-20T03:22:34.403Z,70.08
2023-11-20T03:25:00.849Z,69.17
2023-11-20T03:27:27.305Z,69.24
2023-11-20T03:29:53.780Z,69.75
2023-11-20T03:32:20.217Z,69.60
2023-11-20T03:34:47.701Z,70.35
2023-11-20T03:37:14.159Z,68.97
2023-11-20T03:39:40.612Z,69.98
2023-11-20T03:42:07.103Z,70.04
2023-11-20T03:44:33.514Z,69.60
2023-11-20T03:47:00.005Z,69.79
2023-11-20T03:49:26.511Z,69.15
2023-11-20T03:51:53.111Z,69.81
2023-11-20T03:54:19.722Z,69.59
2023-11-20T03:56:46.279Z,69.85
2023-11-20T03:59:15.013Z,69.92
2023-11-20T04:01:41.619Z,68.80
2023-11-20T04:04:08.263Z,68.13
2023-11-20T04:06:34.884Z,68.09
2023-11-20T04:09:01.556Z,69.86
2023-11-20T04:11:28.122Z,68.36
2023-11-20T04:13:54.715Z,69.67
2023-11-20T04:16:21.288Z,68.74
2023-11-20T04:18:48.365Z,69.67
2023-11-20T04:21:15.171Z,69.49
2023-11-20T04:23:42.159Z,69.78
2023-11-20T04:26:08.712Z,68.01
2023-11-20T04:28:35.273Z,66.26
2023-11-20T04:31:02.186Z,66.93
2023-11-20T04:33:28.904Z,68.09
2023-11-20T04:35:55.500Z,68.35
2023-11-20T04:38:22.117Z,68.38
2023-11-20T04:40:48.716Z,67.87
2023-11-20T04:43:15.336Z,68.64
2023-11-20T04:45:41.947Z,68.99
2023-11-20T04:48:08.546Z,68.13
2023-11-20T04:50:35.116Z,68.17
2023-11-20T04:53:01.746Z,67.57
2023-11-20T04:55:28.374Z,67.35
2023-11-20T04:57:54.992Z,67.60
2023-11-20T05:00:21.634Z,67.93
2023-11-20T05:02:48.277Z,69.54
2023-11-20T05:05:14.933Z,68.41
2023-11-20T05:07:41.563Z,68.11
2023-11-20T05:10:08.339Z,67.39
2023-11-20T05:12:35.042Z,66.71
2023-11-20T05:15:01.680Z,66.85
2023-11-20T05:17:28.274Z,67.95
2023-11-20T05:19:55.014Z,67.66
2023-11-20T05:22:21.592Z,67.55
2023-11-20T05:24:48.202Z,67.40
2023-11-20T05:27:14.821Z,67.66
2023-11-20T05:29:41.388Z,67.53
2023-11-20T05:32:10.385Z,68.43
2023-11-20T05:34:36.994Z,68.13
2023-11-20T05:37:03.642Z,68.27
2023-11-20T05:39:30.220Z,67.87
2023-11-20T05:41:56.815Z,67.65
2023-11-20T05:44:23.446Z,67.01
2023-11-20T05:46:50.058Z,67.93
2023-11-20T05:49:16.705Z,67.60
2023-11-20T05:51:43.364Z,67.59
2023-11-20T05:54:09.961Z,66.97
2023-11-20T05:56:36.523Z,67.85
2023-11-20T05:59:05.676Z,67.35
2023-11-20T06:01:32.337Z,67.25
2023-11-20T06:03:59.035Z,68.32
2023-11-20T06:06:25.647Z,69.62
2023-11-20T06:08:52.212Z,68.99
2023-11-20T06:11:18.785Z,68.58
2023-11-20T06:13:45.364Z,68.61
2023-11-20T06:16:12.060Z,68.12
2023-11-20T06:18:38.843Z,67.97
2023-11-20T06:21:05.419Z,68.43
2023-11-20T06:23:32.006Z,68.23
2023-11-20T06:25:58.557Z,68.96
2023-11-20T06:28:25.097Z,68.48
2023-11-20T06:30:51.785Z,67.42
2023-11-20T06:33:18.402Z,68.16
2023-11-20T06:35:45.099Z,67.92
2023-11-20T06:38:11.658Z,67.33
2023-11-20T06:40:38.316Z,68.55
2023-11-20T06:43:04.974Z,68.09
2023-11-20T06:45:31.581Z,67.65
2023-11-20T06:47:58.249Z,66.60
2023-11-20T06:50:24.926Z,66.99
2023-11-20T06:52:51.523Z,67.62
2023-11-20T06:55:18.130Z,67.31
2023-11-20T06:57:44.757Z,67.66
2023-11-20T07:00:11.358Z,67.58
2023-11-20T07:02:38.012Z,66.49
2023-11-20T07:05:04.755Z,67.41
2023-11-20T07:07:31.388Z,67.38
2023-11-20T07:09:58.009Z,66.92
2023-11-20T07:12:24.621Z,67.98
2023-11-20T07:14:51.182Z,66.97
2023-11-20T07:17:17.737Z,66.39
2023-11-20T07:19:44.304Z,65.71
2023-11-20T07:22:10.942Z,66.37
2023-11-20T07:24:37.585Z,66.00
2023-11-20T07:27:04.158Z,66.54
2023-11-20T07:29:30.741Z,65.33
2023-11-20T07:31:57.348Z,65.76
2023-11-20T07:34:23.962Z,65.62
2023-11-20T07:36:50.657Z,65.37
2023-11-20T07:39:17.261Z,64.97
2023-11-20T07:41:43.847Z,66.03
2023-11-20T07:44:10.441Z,65.19
2023-11-20T07:46:37.341Z,64.52
2023-11-20T07:49:04.073Z,65.84
2023-11-20T07:51:30.687Z,65.22
2023-11-20T07:53:57.252Z,65.52
2023-11-20T07:56:23.846Z,65.50
2023-11-20T07:58:50.468Z,65.48
2023-11-20T08:01:17.116Z,64.46
2023-11-20T08:03:43.848Z,64.95
2023-11-20T08:06:19.640Z,65.19
2023-11-20T08:08:47.609Z,65.34
2023-11-20T08:11:14.208Z,65.29
2023-11-20T08:13:40.751Z,64.95
2023-11-20T08:16:07.551Z,65.79
2023-11-20T08:18:34.153Z,65.34
2023-11-20T08:21:00.749Z,65.85
2023-11-20T08:23:27.616Z,66.13
2023-11-20T08:25:54.213Z,65.98
2023-11-20T08:28:20.877Z,65.95
2023-11-20T08:30:47.556Z,65.96
2023-11-20T08:33:14.153Z,65.25
2023-11-20T08:35:40.806Z,65.19
2023-11-20T08:38:07.382Z,65.66
2023-11-20T08:40:34.072Z,65.53
2023-11-20T08:43:00.739Z,64.83
2023-11-20T08:45:27.584Z,65.03
2023-11-20T08:47:54.227Z,64.18
2023-11-20T08:50:21.904Z,63.79
2023-11-20T08:52:48.526Z,63.96
2023-11-20T08:57:42.069Z,61.80
2023-11-20T09:00:08.695Z,63.53
2023-11-20T09:02:35.295Z,63.44
2023-11-20T09:05:01.896Z,63.32
2023-11-20T09:07:28.458Z,63.39
2023-11-20T09:09:55.049Z,64.11
2023-11-20T09:12:21.630Z,62.16
2023-11-20T09:14:48.231Z,61.66
2023-11-20T09:17:14.893Z,61.86
2023-11-20T09:19:41.482Z,61.17
2023-11-20T09:22:08.096Z,62.06
2023-11-20T09:24:34.677Z,61.52
2023-11-20T09:27:01.240Z,60.74
2023-11-20T09:29:27.801Z,61.11
2023-11-20T09:31:54.392Z,61.64
2023-11-20T09:34:21.049Z,62.56
2023-11-20T09:36:47.692Z,61.89
2023-11-20T09:39:14.417Z,60.56
2023-11-20T09:41:41.093Z,60.67
2023-11-20T09:44:07.681Z,60.91
2023-11-20T09:46:34.406Z,60.50
2023-11-20T09:49:01.628Z,60.36
2023-11-20T09:51:28.247Z,61.25
2023-11-20T09:53:54.848Z,61.02
2023-11-20T09:56:21.459Z,60.89
2023-11-20T09:58:48.140Z,60.03
2023-11-20T10:01:15.844Z,60.34
2023-11-20T10:03:43.110Z,60.33
2023-11-20T10:06:09.825Z,60.91
2023-11-20T10:08:36.550Z,59.84
2023-11-20T10:11:03.157Z,60.99
2023-11-20T10:13:29.747Z,60.18
2023-11-20T10:15:56.465Z,59.74
2023-11-20T10:18:23.037Z,58.95
2023-11-20T10:20:49.669Z,58.60
2023-11-20T10:23:16.339Z,58.79
2023-11-20T10:25:42.971Z,59.03
2023-11-20T10:28:09.714Z,57.89
2023-11-20T10:30:36.321Z,57.67
2023-11-20T10:33:03.008Z,59.09
2023-11-20T10:35:29.754Z,59.27
2023-11-20T10:37:56.358Z,59.06
2023-11-20T10:40:22.958Z,59.66
2023-11-20T10:42:49.665Z,58.58
2023-11-20T10:45:16.267Z,59.18
2023-11-20T10:47:42.903Z,59.77
2023-11-20T10:50:09.518Z,59.74
2023-11-20T10:52:36.311Z,59.18
2023-11-20T10:55:02.931Z,59.00
2023-11-20T10:57:29.558Z,58.37
2023-11-20T10:59:56.124Z,58.93
2023-11-20T11:02:22.727Z,60.36
2023-11-20T11:04:49.420Z,58.86
2023-11-20T11:07:16.057Z,58.75
2023-11-20T11:09:42.646Z,59.54
2023-11-20T11:12:09.239Z,60.10
2023-11-20T11:14:35.864Z,59.88
2023-11-20T11:17:02.507Z,60.22
2023-11-20T11:19:29.133Z,59.44
2023-11-20T11:21:55.768Z,60.75
2023-11-20T11:24:22.342Z,59.76
2023-11-20T11:26:48.913Z,58.36
2023-11-20T11:29:15.508Z,59.41
2023-11-20T11:31:42.198Z,58.27
2023-11-20T11:34:08.804Z,59.67
2023-11-20T11:36:35.376Z,59.98
2023-11-20T11:39:01.942Z,60.09
2023-11-20T11:41:29.803Z,59.93
2023-11-20T11:43:56.399Z,59.45
2023-11-20T11:46:23.070Z,59.88
2023-11-20T11:48:49.662Z,59.55
2023-11-20T11:51:16.262Z,58.94
2023-11-20T11:53:42.851Z,58.82
2023-11-20T11:56:09.890Z,58.73
2023-11-20T11:58:36.479Z,58.65
2023-11-20T12:01:03.100Z,59.27
2023-11-20T12:03:29.740Z,59.28
2023-11-20T12:05:56.355Z,60.72
2023-11-20T12:08:22.922Z,61.99
2023-11-20T12:10:49.493Z,60.59
2023-11-20T12:13:16.198Z,59.84
2023-11-20T12:15:42.802Z,60.01
2023-11-20T12:18:09.418Z,59.82
2023-11-20T12:20:36.144Z,59.21
2023-11-20T12:23:02.766Z,58.37
2023-11-20T12:25:29.398Z,58.16
2023-11-20T12:27:56.043Z,58.07
2023-11-20T12:30:22.651Z,57.56
2023-11-20T12:32:49.253Z,57.10
2023-11-20T12:35:15.860Z,58.41
2023-11-20T12:37:42.441Z,57.61
2023-11-20T12:40:09.166Z,59.22
2023-11-20T12:42:35.758Z,58.99
2023-11-20T12:45:02.338Z,58.65
2023-11-20T12:47:28.921Z,60.01
2023-11-20T12:49:55.486Z,60.64
2023-11-20T12:52:22.120Z,61.43
2023-11-20T12:54:48.701Z,60.28
2023-11-20T12:57:15.279Z,62.16
2023-11-20T12:59:41.863Z,61.97
2023-11-20T13:02:08.449Z,60.70
2023-11-20T13:04:35.135Z,60.66
2023-11-20T13:07:01.860Z,60.28
2023-11-20T13:09:28.461Z,61.75
2023-11-20T13:11:55.115Z,61.68
2023-11-20T13:14:21.762Z,62.53
2023-11-20T13:16:48.581Z,62.21
2023-11-20T13:19:15.261Z,61.58
2023-11-20T13:21:41.877Z,60.83
2023-11-20T13:24:08.436Z,60.58
2023-11-20T13:26:35.007Z,60.46
2023-11-20T13:29:01.630Z,60.00
2023-11-20T13:31:28.235Z,59.87
2023-11-20T13:33:54.936Z,60.25
2023-11-20T13:36:21.549Z,60.38
2023-11-20T13:38:48.113Z,61.94
2023-11-20T13:41:14.683Z,61.46
2023-11-20T13:43:41.254Z,61.51
2023-11-20T13:46:08.133Z,61.61
2023-11-20T13:48:34.981Z,61.25
2023-11-20T13:51:01.797Z,60.71
2023-11-20T13:53:28.380Z,60.25
2023-11-20T13:55:54.971Z,60.22
2023-11-20T13:58:21.797Z,59.78
2023-11-20T14:00:48.391Z,60.32
2023-11-20T14:03:15.222Z,60.53
2023-11-20T14:05:41.890Z,60.23
2023-11-20T14:08:08.474Z,59.61
2023-11-20T14:10:35.098Z,59.50
2023-11-20T14:13:01.812Z,59.32
2023-11-20T14:15:28.388Z,59.08
2023-11-20T14:17:55.014Z,58.87
2023-11-20T14:20:21.874Z,58.83
2023-11-20T14:22:48.486Z,58.84
2023-11-20T14:25:15.469Z,58.77
2023-11-20T14:27:42.144Z,58.22
2023-11-20T14:30:08.755Z,58.76
2023-11-20T14:32:35.388Z,59.20
2023-11-20T14:35:01.978Z,59.32
2023-11-20T14:37:28.559Z,58.51
2023-11-20T14:39:55.198Z,58.59
2023-11-20T14:42:24.429Z,58.43
2023-11-20T14:44:54.144Z,58.40
2023-11-20T14:47:20.838Z,59.64
2023-11-20T14:49:49.234Z,60.45
2023-11-20T14:52:15.816Z,60.05
2023-11-20T14:54:43.603Z,61.04
2023-11-20T14:57:10.164Z,60.17
2023-11-20T14:59:36.760Z,61.65
2023-11-20T15:02:03.357Z,60.99
2023-11-20T15:04:30.063Z,62.20
2023-11-20T15:06:56.942Z,61.45
2023-11-20T15:09:23.540Z,60.26
2023-11-20T15:11:50.122Z,60.43
2023-11-20T15:14:16.787Z,59.79
2023-11-20T15:16:43.480Z,60.87
2023-11-20T15:19:10.163Z,59.63
2023-11-20T15:21:36.752Z,59.43
2023-11-20T15:24:03.334Z,59.33
2023-11-20T15:26:29.914Z,58.94
2023-11-20T15:28:56.503Z,59.52
2023-11-20T15:31:23.147Z,59.74
2023-11-20T15:33:49.750Z,58.68
2023-11-20T15:36:16.356Z,59.19
2023-11-20T15:38:43.002Z,59.52
2023-11-20T15:41:09.914Z,60.20
2023-11-20T15:43:36.642Z,59.43
2023-11-20T15:46:03.345Z,59.45
2023-11-20T15:48:29.985Z,59.77
2023-11-20T15:50:56.565Z,59.95
2023-11-20T15:53:23.355Z,60.01
2023-11-20T15:55:50.020Z,59.82
2023-11-20T15:58:16.628Z,59.85
2023-11-20T16:00:43.344Z,60.39
2023-11-20T16:03:10.002Z,60.77
2023-11-20T16:05:36.638Z,60.15
2023-11-20T16:08:03.204Z,59.44
2023-11-20T16:10:29.814Z,59.33
2023-11-20T16:12:56.447Z,57.42
2023-11-20T16:15:23.058Z,56.17
2023-11-20T16:17:49.666Z,53.01
2023-11-20T16:20:16.280Z,52.93
2023-11-20T16:22:42.890Z,53.25
2023-11-20T16:25:09.498Z,52.28
2023-11-20T16:27:36.108Z,51.42
2023-11-20T16:30:02.693Z,51.30
2023-11-20T16:32:29.371Z,50.31
2023-11-20T16:34:55.961Z,49.69
2023-11-20T16:37:22.634Z,48.90
2023-11-20T16:39:51.413Z,49.15
2023-11-20T16:42:18.019Z,48.72
2023-11-20T16:44:44.597Z,48.54
2023-11-20T16:47:11.225Z,49.57
2023-11-20T16:49:37.872Z,49.90
2023-11-20T16:52:04.488Z,49.68
2023-11-20T16:54:31.155Z,49.78
2023-11-20T16:56:57.778Z,49.41
2023-11-20T16:59:24.442Z,49.51
2023-11-20T17:01:51.134Z,49.78
2023-11-20T17:04:17.807Z,49.72
2023-11-20T17:06:44.458Z,49.49
2023-11-20T17:09:11.054Z,49.52
2023-11-20T17:11:37.643Z,49.40
2023-11-20T17:14:04.272Z,49.61
2023-11-20T17:16:31.114Z,49.28
2023-11-20T17:18:57.966Z,49.05
2023-11-20T17:21:24.647Z,49.23
2023-11-20T17:23:53.234Z,49.12
2023-11-20T17:26:19.822Z,49.00
2023-11-20T17:28:46.454Z,49.44
2023-11-20T17:31:15.078Z,48.61
2023-11-20T17:33:41.761Z,48.59
2023-11-20T17:36:08.351Z,49.15
2023-11-20T17:38:34.978Z,47.67
2023-11-20T17:41:01.562Z,47.89
2023-11-20T17:43:30.450Z,47.40
2023-11-20T17:45:57.178Z,47.52
2023-11-20T17:48:23.867Z,47.60
2023-11-20T17:50:50.452Z,47.94
2023-11-20T17:53:17.034Z,48.60
2023-11-20T17:55:43.669Z,47.60
2023-11-20T17:58:10.313Z,46.97
2023-11-20T18:00:37.009Z,48.25
2023-11-20T18:03:06.341Z,47.88
2023-11-20T18:05:37.257Z,47.99
2023-11-20T18:08:03.864Z,48.71
2023-11-20T18:10:30.528Z,48.86
2023-11-20T18:12:57.133Z,48.71
2023-11-20T18:15:25.313Z,48.95
2023-11-20T18:17:52.134Z,50.80
2023-11-20T18:20:18.888Z,50.11
2023-11-20T18:22:45.486Z,51.75
2023-11-20T18:25:12.135Z,53.49
2023-11-20T18:27:38.750Z,53.58
2023-11-20T18:30:05.360Z,52.27
2023-11-20T18:32:31.991Z,51.46
2023-11-20T18:34:58.617Z,51.27
2023-11-20T18:37:25.443Z,51.95
2023-11-20T18:39:52.072Z,55.21
2023-11-20T18:42:18.651Z,55.59
2023-11-20T18:44:45.404Z,55.39
2023-11-20T18:47:12.154Z,54.25
2023-11-20T18:49:38.849Z,54.02
2023-11-20T18:52:05.518Z,53.70
2023-11-20T18:54:32.121Z,53.83
2023-11-20T18:56:58.723Z,53.21
2023-11-20T18:59:25.296Z,53.19
2023-11-20T19:01:51.925Z,53.82
2023-11-20T19:04:18.690Z,53.21
2023-11-20T19:06:45.278Z,52.24
2023-11-20T19:09:11.873Z,52.49
2023-11-20T19:11:38.455Z,51.88
2023-11-20T19:14:05.128Z,52.48
2023-11-20T19:16:31.769Z,52.01
2023-11-20T19:18:58.384Z,51.51
2023-11-20T19:21:25.037Z,52.77
2023-11-20T19:23:51.488Z,53.55
2023-11-20T19:26:17.921Z,53.17
2023-11-20T19:28:44.356Z,52.97
2023-11-20T19:31:10.877Z,51.58
2023-11-20T19:33:37.335Z,51.60
2023-11-20T19:36:03.840Z,52.19
2023-11-20T19:38:30.273Z,52.78
2023-11-20T19:40:56.766Z,52.42
2023-11-20T19:43:23.236Z,53.20
2023-11-20T19:45:49.660Z,52.76
2023-11-20T19:48:16.145Z,53.02
2023-11-20T19:50:42.593Z,52.56
2023-11-20T19:53:09.089Z,53.58
2023-11-20T19:55:35.543Z,52.51
2023-11-20T19:58:02.054Z,51.16
2023-11-20T20:00:28.578Z,51.47
2023-11-20T20:02:55.084Z,51.29
2023-11-20T20:05:23.845Z,51.01
2023-11-20T20:07:54.607Z,51.97
2023-11-20T20:10:21.072Z,52.14
2023-11-20T20:12:47.533Z,51.87
2023-11-20T20:15:14.095Z,51.26
2023-11-20T20:17:43.694Z,52.62
2023-11-20T20:20:10.177Z,52.70
2023-11-20T20:22:37.201Z,52.59
2023-11-20T20:25:04.025Z,52.12
2023-11-20T20:27:30.618Z,52.79
2023-11-20T20:29:57.208Z,53.84
2023-11-20T20:32:23.798Z,53.67
2023-11-20T20:34:50.458Z,53.74
2023-11-20T20:37:17.137Z,53.29
2023-11-20T20:39:43.720Z,54.05
2023-11-20T20:42:10.579Z,54.39
2023-11-20T20:44:37.032Z,53.47
2023-11-20T20:47:03.525Z,53.43
2023-11-20T20:49:30.047Z,53.71
2023-11-20T20:51:56.483Z,52.54
2023-11-20T20:54:22.953Z,52.30
2023-11-20T20:56:49.372Z,51.87
2023-11-20T20:59:15.773Z,52.71
2023-11-20T21:01:42.286Z,53.13
2023-11-20T21:04:08.785Z,53.25
2023-11-20T21:06:35.345Z,53.78
2023-11-20T21:09:01.802Z,53.13
2023-11-20T21:11:28.273Z,53.35
2023-11-20T21:13:54.889Z,52.61
2023-11-20T21:16:23.013Z,53.17
2023-11-20T21:18:49.650Z,51.46
2023-11-20T21:21:16.268Z,50.92
2023-11-20T21:23:42.686Z,50.74
2023-11-20T21:26:09.269Z,49.01
2023-11-20T21:28:36.222Z,49.29
2023-11-20T21:31:04.803Z,50.46
2023-11-20T21:33:34.355Z,50.76
2023-11-20T21:36:00.830Z,52.20
2023-11-20T21:38:27.275Z,51.90
2023-11-20T21:40:53.873Z,51.46
2023-11-20T21:43:20.803Z,50.75
2023-11-20T21:45:51.537Z,49.79
2023-11-20T21:48:18.253Z,50.04
2023-11-20T21:50:45.028Z,49.95
2023-11-20T21:53:11.947Z,50.52
2023-11-20T21:55:39.025Z,51.34
2023-11-20T21:58:05.793Z,50.26
2023-11-20T22:00:32.442Z,50.01
2023-11-20T22:02:58.903Z,50.10
2023-11-20T22:05:25.385Z,50.44
2023-11-20T22:07:51.850Z,50.52
2023-11-20T22:10:18.324Z,52.10
2023-11-20T22:12:44.771Z,52.08
2023-11-20T22:15:11.180Z,52.25
2023-11-20T22:17:37.606Z,53.15
2023-11-20T22:20:04.228Z,53.33
2023-11-20T22:22:30.768Z,53.29
2023-11-20T22:24:57.188Z,53.11
2023-11-20T22:27:23.616Z,53.41
2023-11-20T22:29:50.051Z,53.89
2023-11-20T22:32:16.555Z,54.25
2023-11-20T22:34:43.220Z,54.75
2023-11-20T22:37:09.726Z,54.86
2023-11-20T22:39:36.160Z,54.51
2023-11-20T22:42:02.617Z,54.71
2023-11-20T22:44:29.133Z,53.29
2023-11-20T22:46:55.662Z,55.35
2023-11-20T22:49:22.262Z,53.95
2023-11-20T22:51:48.685Z,54.27
2023-11-20T22:54:15.147Z,53.92
2023-11-20T22:56:41.565Z,54.64
2023-11-20T22:59:08.023Z,54.81
2023-11-20T23:01:34.741Z,55.88
2023-11-20T23:04:01.464Z,54.47
2023-11-20T23:06:28.126Z,54.32
2023-11-20T23:08:54.708Z,54.11
2023-11-20T23:11:21.286Z,54.18
2023-11-20T23:13:47.954Z,54.35
2023-11-20T23:16:16.738Z,54.17
2023-11-20T23:18:43.574Z,54.76
2023-11-20T23:21:10.173Z,56.16
2023-11-20T23:23:36.765Z,57.08
2023-11-20T23:26:03.339Z,56.27
2023-11-20T23:28:30.024Z,55.15
2023-11-20T23:30:56.637Z,54.58
2023-11-20T23:33:23.223Z,54.58
2023-11-20T23:35:49.822Z,55.56
2023-11-20T23:38:16.421Z,55.48
2023-11-20T23:40:43.010Z,54.83
2023-11-20T23:43:09.891Z,54.64
2023-11-20T23:45:36.495Z,56.17
2023-11-20T23:48:03.084Z,56.01
2023-11-20T23:50:29.713Z,55.64
2023-11-20T23:52:56.306Z,55.49
2023-11-20T23:55:22.975Z,55.49
2023-11-20T23:57:49.600Z,54.71
